createdAt,value
2023-04-29T00:00:38.000Z,97993
2023-04-29T00:02:44.000Z,97994
2023-04-29T00:04:11.000Z,97993
2023-04-29T00:06:17.000Z,97991
2023-04-29T00:07:44.000Z,97992
2023-04-29T00:09:50.000Z,97990
2023-04-29T00:11:17.000Z,97992
2023-04-29T00:13:23.000Z,97989
2023-04-29T00:14:50.000Z,97986
2023-04-29T00:16:56.000Z,97983
2023-04-29T00:18:22.000Z,97982
2023-04-29T00:20:28.000Z,97980
2023-04-29T00:21:55.000Z,97977
2023-04-29T00:24:01.000Z,97984
2023-04-29T00:25:27.000Z,97986
2023-04-29T00:27:34.000Z,97990
2023-04-29T00:29:00.000Z,97989
2023-04-29T00:31:06.000Z,97985
2023-04-29T00:32:33.000Z,97985
2023-04-29T00:34:39.000Z,97988
2023-04-29T00:37:30.000Z,97991
2023-04-29T00:38:56.000Z,97995
2023-04-29T00:41:03.000Z,97996
2023-04-29T00:42:29.000Z,97997
2023-04-29T00:44:35.000Z,97998
2023-04-29T00:46:02.000Z,97998
2023-04-29T00:48:08.000Z,97997
2023-04-29T00:49:34.000Z,97999
2023-04-29T00:51:40.000Z,97997
2023-04-29T00:53:07.000Z,97995
2023-04-29T00:55:13.000Z,97999
2023-04-29T00:56:40.000Z,97998
2023-04-29T00:58:46.000Z,97998
2023-04-29T01:00:12.000Z,98003
2023-04-29T01:02:19.000Z,97996
2023-04-29T01:03:45.000Z,97998
2023-04-29T01:05:52.000Z,97998
2023-04-29T01:07:18.000Z,97996
2023-04-29T01:09:24.000Z,97993
2023-04-29T01:10:51.000Z,97993
2023-04-29T01:12:57.000Z,97993
2023-04-29T01:15:48.000Z,97993
2023-04-29T01:17:15.000Z,97995
2023-04-29T01:19:21.000Z,98000
2023-04-29T01:20:47.000Z,98000
2023-04-29T01:22:53.000Z,98001
2023-04-29T01:24:20.000Z,98000
2023-04-29T01:26:26.000Z,98002
2023-04-29T01:27:52.000Z,98001
2023-04-29T01:29:58.000Z,98005
2023-04-29T01:31:25.000Z,98005
2023-04-29T01:33:31.000Z,98006
2023-04-29T01:34:58.000Z,98010
2023-04-29T01:37:04.000Z,98007
2023-04-29T01:38:30.000Z,98008
2023-04-29T01:40:36.000Z,98007
2023-04-29T01:42:03.000Z,98008
2023-04-29T01:44:09.000Z,98010
2023-04-29T01:45:36.000Z,98010
2023-04-29T01:47:42.000Z,98011
2023-04-29T01:49:08.000Z,98009
2023-04-29T01:51:14.000Z,98009
2023-04-29T01:54:05.000Z,98004
2023-04-29T01:55:32.000Z,98001
2023-04-29T01:57:38.000Z,98005
2023-04-29T01:59:04.000Z,98004
2023-04-29T02:01:10.000Z,97997
2023-04-29T02:02:37.000Z,97999
2023-04-29T02:04:43.000Z,97999
2023-04-29T02:06:10.000Z,98005
2023-04-29T02:08:16.000Z,98005
2023-04-29T02:09:42.000Z,98011
2023-04-29T02:11:48.000Z,98011
2023-04-29T02:13:15.000Z,98008
2023-04-29T02:15:21.000Z,98010
2023-04-29T02:16:48.000Z,98010
2023-04-29T02:18:54.000Z,98007
2023-04-29T02:20:20.000Z,98009
2023-04-29T02:22:27.000Z,98013
2023-04-29T02:23:53.000Z,98014
2023-04-29T02:25:59.000Z,98018
2023-04-29T02:27:26.000Z,98016
2023-04-29T02:29:32.000Z,98018
2023-04-29T02:32:23.000Z,98016
2023-04-29T02:33:50.000Z,98017
2023-04-29T02:35:56.000Z,98019
2023-04-29T02:37:22.000Z,98017
2023-04-29T02:39:28.000Z,98014
2023-04-29T02:40:55.000Z,98014
2023-04-29T02:43:01.000Z,98010
2023-04-29T02:44:27.000Z,98008
2023-04-29T02:46:33.000Z,98010
2023-04-29T02:48:00.000Z,98009
2023-04-29T02:50:06.000Z,98009
2023-04-29T02:51:33.000Z,98011
2023-04-29T02:53:39.000Z,98016
2023-04-29T02:55:05.000Z,98014
2023-04-29T02:57:11.000Z,98012
2023-04-29T02:58:38.000Z,98012
2023-04-29T03:00:44.000Z,98017
2023-04-29T03:02:10.000Z,98015
2023-04-29T03:04:17.000Z,98013
2023-04-29T03:05:43.000Z,98013
2023-04-29T03:07:50.000Z,98018
2023-04-29T03:10:41.000Z,98014
2023-04-29T03:12:08.000Z,98012
2023-04-29T03:14:14.000Z,98012
2023-04-29T03:15:40.000Z,98012
2023-04-29T03:17:46.000Z,98013
2023-04-29T03:19:13.000Z,98011
2023-04-29T03:21:19.000Z,98012
2023-04-29T03:22:46.000Z,98011
2023-04-29T03:24:52.000Z,98011
2023-04-29T03:26:18.000Z,98012
2023-04-29T03:28:24.000Z,98010
2023-04-29T03:29:51.000Z,98013
2023-04-29T03:31:58.000Z,98009
2023-04-29T03:33:24.000Z,98010
2023-04-29T03:35:30.000Z,98012
2023-04-29T03:36:57.000Z,98013
2023-04-29T03:39:03.000Z,98013
2023-04-29T03:40:30.000Z,98013
2023-04-29T03:42:36.000Z,98014
2023-04-29T03:44:02.000Z,98016
2023-04-29T03:46:09.000Z,98014
2023-04-29T03:49:00.000Z,98011
2023-04-29T03:50:26.000Z,98012
2023-04-29T03:52:32.000Z,98012
2023-04-29T03:53:59.000Z,98012
2023-04-29T03:56:05.000Z,98015
2023-04-29T03:57:31.000Z,98016
2023-04-29T03:59:38.000Z,98021
2023-04-29T04:01:04.000Z,98023
2023-04-29T04:03:10.000Z,98020
2023-04-29T04:04:37.000Z,98022
2023-04-29T04:06:43.000Z,98029
2023-04-29T04:08:10.000Z,98029
2023-04-29T04:10:16.000Z,98036
2023-04-29T04:11:42.000Z,98043
2023-04-29T04:13:49.000Z,98047
2023-04-29T04:15:15.000Z,98040
2023-04-29T04:17:21.000Z,98044
2023-04-29T04:18:48.000Z,98051
2023-04-29T04:20:54.000Z,98052
2023-04-29T04:22:20.000Z,98057
2023-04-29T04:24:27.000Z,98055
2023-04-29T04:27:18.000Z,98059
2023-04-29T04:28:44.000Z,98066
2023-04-29T04:30:50.000Z,98066
2023-04-29T04:32:17.000Z,98066
2023-04-29T04:34:23.000Z,98067
2023-04-29T04:35:49.000Z,98072
2023-04-29T04:37:56.000Z,98078
2023-04-29T04:39:22.000Z,98072
2023-04-29T04:41:28.000Z,98078
2023-04-29T04:42:55.000Z,98078
2023-04-29T04:45:01.000Z,98081
2023-04-29T04:46:28.000Z,98084
2023-04-29T04:48:34.000Z,98087
2023-04-29T04:50:00.000Z,98086
2023-04-29T04:52:06.000Z,98084
2023-04-29T04:53:33.000Z,98093
2023-04-29T04:55:39.000Z,98091
2023-04-29T04:57:05.000Z,98098
2023-04-29T04:59:12.000Z,98101
2023-04-29T05:00:38.000Z,98103
2023-04-29T05:02:44.000Z,98105
2023-04-29T05:05:36.000Z,98105
2023-04-29T05:07:02.000Z,98109
2023-04-29T05:09:08.000Z,98111
2023-04-29T05:10:35.000Z,98113
2023-04-29T05:12:41.000Z,98118
2023-04-29T05:14:07.000Z,98120
2023-04-29T05:16:14.000Z,98119
2023-04-29T05:17:40.000Z,98118
2023-04-29T05:19:46.000Z,98122
2023-04-29T05:21:13.000Z,98124
2023-04-29T05:23:21.000Z,98123
2023-04-29T05:24:48.000Z,98123
2023-04-29T05:26:54.000Z,98127
2023-04-29T05:28:21.000Z,98127
2023-04-29T05:30:27.000Z,98129
2023-04-29T05:31:53.000Z,98128
2023-04-29T05:33:59.000Z,98136
2023-04-29T05:35:26.000Z,98139
2023-04-29T05:37:32.000Z,98140
2023-04-29T05:38:59.000Z,98142
2023-04-29T05:41:05.000Z,98143
2023-04-29T05:43:56.000Z,98146
2023-04-29T05:45:22.000Z,98147
2023-04-29T05:47:29.000Z,98150
2023-04-29T05:48:55.000Z,98150
2023-04-29T05:51:01.000Z,98152
2023-04-29T05:52:28.000Z,98161
2023-04-29T05:54:34.000Z,98161
2023-04-29T05:56:00.000Z,98162
2023-04-29T05:58:06.000Z,98166
2023-04-29T05:59:33.000Z,98170
2023-04-29T06:01:39.000Z,98174
2023-04-29T06:03:05.000Z,98171
2023-04-29T06:05:12.000Z,98175
2023-04-29T06:06:39.000Z,98175
2023-04-29T06:08:45.000Z,98177
2023-04-29T06:10:11.000Z,98179
2023-04-29T06:12:18.000Z,98183
2023-04-29T06:13:44.000Z,98185
2023-04-29T06:15:50.000Z,98184
2023-04-29T06:17:17.000Z,98186
2023-04-29T06:19:23.000Z,98193
2023-04-29T06:22:14.000Z,98200
2023-04-29T06:23:41.000Z,98203
2023-04-29T06:25:47.000Z,98206
2023-04-29T06:27:13.000Z,98203
2023-04-29T06:29:19.000Z,98209
2023-04-29T06:30:46.000Z,98209
2023-04-29T06:32:52.000Z,98208
2023-04-29T06:34:19.000Z,98211
2023-04-29T06:36:25.000Z,98211
2023-04-29T06:37:51.000Z,98215
2023-04-29T06:39:57.000Z,98217
2023-04-29T06:41:24.000Z,98218
2023-04-29T06:43:30.000Z,98221
2023-04-29T06:44:56.000Z,98224
2023-04-29T06:47:02.000Z,98225
2023-04-29T06:48:29.000Z,98230
2023-04-29T06:50:35.000Z,98230
2023-04-29T06:52:02.000Z,98235
2023-04-29T06:54:08.000Z,98237
2023-04-29T06:55:34.000Z,98237
2023-04-29T06:57:40.000Z,98237
2023-04-29T07:00:31.000Z,98241
2023-04-29T07:01:58.000Z,98243
2023-04-29T07:04:04.000Z,98242
2023-04-29T07:05:31.000Z,98246
2023-04-29T07:07:37.000Z,98250
2023-04-29T07:09:03.000Z,98250
2023-04-29T07:11:09.000Z,98255
2023-04-29T07:12:36.000Z,98257
2023-04-29T07:14:42.000Z,98257
2023-04-29T07:16:08.000Z,98261
2023-04-29T07:18:15.000Z,98262
2023-04-29T07:19:41.000Z,98266
2023-04-29T07:21:47.000Z,98274
2023-04-29T07:23:14.000Z,98276
2023-04-29T07:25:20.000Z,98274
2023-04-29T07:26:46.000Z,98276
2023-04-29T07:28:53.000Z,98273
2023-04-29T07:30:19.000Z,98283
2023-04-29T07:32:25.000Z,98285
2023-04-29T07:33:52.000Z,98292
2023-04-29T07:35:58.000Z,98296
2023-04-29T07:38:49.000Z,98299
2023-04-29T07:40:16.000Z,98302
2023-04-29T07:42:22.000Z,98299
2023-04-29T07:43:48.000Z,98300
2023-04-29T07:45:54.000Z,98302
2023-04-29T07:47:21.000Z,98307
2023-04-29T07:49:27.000Z,98311
2023-04-29T07:50:53.000Z,98310
2023-04-29T07:53:00.000Z,98315
2023-04-29T07:54:26.000Z,98317
2023-04-29T07:56:32.000Z,98316
2023-04-29T07:57:59.000Z,98319
2023-04-29T08:00:06.000Z,98321
2023-04-29T08:01:33.000Z,98323
2023-04-29T08:03:39.000Z,98326
2023-04-29T08:05:08.000Z,98325
2023-04-29T08:07:15.000Z,98320
2023-04-29T08:08:41.000Z,98328
2023-04-29T08:10:48.000Z,98323
2023-04-29T08:12:14.000Z,98326
2023-04-29T08:14:20.000Z,98323
2023-04-29T08:17:12.000Z,98329
2023-04-29T08:18:38.000Z,98331
2023-04-29T08:20:44.000Z,98334
2023-04-29T08:22:11.000Z,98333
2023-04-29T08:24:17.000Z,98337
2023-04-29T08:25:43.000Z,98336
2023-04-29T08:27:49.000Z,98339
2023-04-29T08:29:16.000Z,98333
2023-04-29T08:31:22.000Z,98342
2023-04-29T08:32:49.000Z,98336
2023-04-29T08:34:55.000Z,98339
2023-04-29T08:36:22.000Z,98345
2023-04-29T08:38:28.000Z,98347
2023-04-29T08:39:54.000Z,98348
2023-04-29T08:42:01.000Z,98351
2023-04-29T08:43:27.000Z,98354
2023-04-29T08:45:33.000Z,98358
2023-04-29T08:47:00.000Z,98360
2023-04-29T08:49:06.000Z,98360
2023-04-29T08:50:32.000Z,98361
2023-04-29T08:52:38.000Z,98363
2023-04-29T08:55:30.000Z,98367
2023-04-29T08:56:56.000Z,98363
2023-04-29T08:59:02.000Z,98369
2023-04-29T09:00:29.000Z,98371
2023-04-29T09:02:35.000Z,98372
2023-04-29T09:04:02.000Z,98379
2023-04-29T09:06:08.000Z,98381
2023-04-29T09:07:34.000Z,98381
2023-04-29T09:09:40.000Z,98384
2023-04-29T09:11:07.000Z,98383
2023-04-29T09:13:13.000Z,98385
2023-04-29T09:14:40.000Z,98385
2023-04-29T09:16:46.000Z,98387
2023-04-29T09:18:12.000Z,98386
2023-04-29T09:20:18.000Z,98392
2023-04-29T09:21:45.000Z,98392
2023-04-29T09:23:51.000Z,98395
2023-04-29T09:25:18.000Z,98396
2023-04-29T09:27:24.000Z,98398
2023-04-29T09:28:50.000Z,98402
2023-04-29T09:30:56.000Z,98402
2023-04-29T09:33:48.000Z,98404
2023-04-29T09:35:14.000Z,98406
2023-04-29T09:37:20.000Z,98409
2023-04-29T09:38:47.000Z,98410
2023-04-29T09:40:53.000Z,98414
2023-04-29T09:42:26.000Z,98419
2023-04-29T09:44:32.000Z,98422
2023-04-29T09:46:01.000Z,98427
2023-04-29T09:48:07.000Z,98430
2023-04-29T09:49:33.000Z,98433
2023-04-29T09:51:40.000Z,98433
2023-04-29T09:53:06.000Z,98434
2023-04-29T09:55:12.000Z,98434
2023-04-29T09:56:39.000Z,98431
2023-04-29T09:58:45.000Z,98438
2023-04-29T10:00:11.000Z,98441
2023-04-29T10:02:18.000Z,98441
2023-04-29T10:03:45.000Z,98446
2023-04-29T10:05:51.000Z,98446
2023-04-29T10:07:18.000Z,98448
2023-04-29T10:09:24.000Z,98442
2023-04-29T10:12:15.000Z,98451
2023-04-29T10:13:41.000Z,98452
2023-04-29T10:15:47.000Z,98453
2023-04-29T10:17:14.000Z,98453
2023-04-29T10:19:20.000Z,98454
2023-04-29T10:20:47.000Z,98454
2023-04-29T10:22:53.000Z,98456
2023-04-29T10:24:19.000Z,98452
2023-04-29T10:26:26.000Z,98454
2023-04-29T10:27:52.000Z,98450
2023-04-29T10:29:58.000Z,98452
2023-04-29T10:31:25.000Z,98449
2023-04-29T10:33:31.000Z,98452
2023-04-29T10:34:57.000Z,98452
2023-04-29T10:37:04.000Z,98451
2023-04-29T10:38:30.000Z,98447
2023-04-29T10:40:36.000Z,98455
2023-04-29T10:42:03.000Z,98451
2023-04-29T10:44:09.000Z,98451
2023-04-29T10:45:35.000Z,98449
2023-04-29T10:47:42.000Z,98453
2023-04-29T10:50:33.000Z,98452
2023-04-29T10:52:00.000Z,98455
2023-04-29T10:54:06.000Z,98453
2023-04-29T10:55:32.000Z,98457
2023-04-29T10:57:38.000Z,98454
2023-04-29T10:59:05.000Z,98454
2023-04-29T11:01:11.000Z,98452
2023-04-29T11:02:38.000Z,98455
2023-04-29T11:04:44.000Z,98452
2023-04-29T11:06:10.000Z,98457
2023-04-29T11:08:16.000Z,98457
2023-04-29T11:09:43.000Z,98458
2023-04-29T11:11:49.000Z,98453
2023-04-29T11:13:16.000Z,98455
2023-04-29T11:15:22.000Z,98455
2023-04-29T11:16:48.000Z,98457
2023-04-29T11:18:55.000Z,98457
2023-04-29T11:20:21.000Z,98461
2023-04-29T11:22:27.000Z,98462
2023-04-29T11:23:54.000Z,98464
2023-04-29T11:26:00.000Z,98460
2023-04-29T11:28:51.000Z,98468
2023-04-29T11:30:18.000Z,98472
2023-04-29T11:32:24.000Z,98471
2023-04-29T11:33:50.000Z,98467
2023-04-29T11:35:56.000Z,98473
2023-04-29T11:37:23.000Z,98477
2023-04-29T11:39:29.000Z,98481
2023-04-29T11:40:55.000Z,98480
2023-04-29T11:43:02.000Z,98476
2023-04-29T11:44:28.000Z,98480
2023-04-29T11:46:34.000Z,98480
2023-04-29T11:48:01.000Z,98485
2023-04-29T11:50:07.000Z,98485
2023-04-29T11:51:34.000Z,98488
2023-04-29T11:53:40.000Z,98493
2023-04-29T11:55:06.000Z,98492
2023-04-29T11:57:12.000Z,98496
2023-04-29T11:58:39.000Z,98495
2023-04-29T12:00:45.000Z,98498
2023-04-29T12:02:11.000Z,98499
2023-04-29T12:04:18.000Z,98500
2023-04-29T12:07:09.000Z,98509
2023-04-29T12:08:36.000Z,98514
2023-04-29T12:10:42.000Z,98515
2023-04-29T12:12:09.000Z,98517
2023-04-29T12:14:15.000Z,98517
2023-04-29T12:15:41.000Z,98521
2023-04-29T12:17:47.000Z,98523
2023-04-29T12:19:14.000Z,98522
2023-04-29T12:21:20.000Z,98524
2023-04-29T12:22:46.000Z,98523
2023-04-29T12:24:52.000Z,98523
2023-04-29T12:26:19.000Z,98523
2023-04-29T12:28:25.000Z,98522
2023-04-29T12:29:52.000Z,98520
2023-04-29T12:31:58.000Z,98518
2023-04-29T12:33:25.000Z,98518
2023-04-29T12:35:31.000Z,98521
2023-04-29T12:36:57.000Z,98523
2023-04-29T12:39:03.000Z,98526
2023-04-29T12:40:30.000Z,98525
2023-04-29T12:42:36.000Z,98527
2023-04-29T12:45:28.000Z,98528
2023-04-29T12:46:54.000Z,98530
2023-04-29T12:49:04.000Z,98528
2023-04-29T12:50:30.000Z,98530
2023-04-29T12:52:36.000Z,98532
2023-04-29T12:54:03.000Z,98531
2023-04-29T12:56:09.000Z,98528
2023-04-29T12:57:36.000Z,98533
2023-04-29T12:59:42.000Z,98529
2023-04-29T13:01:08.000Z,98538
2023-04-29T13:03:17.000Z,98539
2023-04-29T13:04:47.000Z,98541
2023-04-29T13:06:54.000Z,98537
2023-04-29T13:08:20.000Z,98538
2023-04-29T13:10:26.000Z,98542
2023-04-29T13:11:53.000Z,98539
2023-04-29T13:13:59.000Z,98539
2023-04-29T13:15:26.000Z,98542
2023-04-29T13:17:32.000Z,98542
2023-04-29T13:18:58.000Z,98541
2023-04-29T13:21:34.000Z,98548
2023-04-29T13:24:25.000Z,98551
2023-04-29T13:25:51.000Z,98553
2023-04-29T13:27:58.000Z,98553
2023-04-29T13:29:24.000Z,98552
2023-04-29T13:31:30.000Z,98552
2023-04-29T13:32:57.000Z,98553
2023-04-29T13:35:15.000Z,98555
2023-04-29T13:36:41.000Z,98551
2023-04-29T13:38:48.000Z,98551
2023-04-29T13:40:21.000Z,98548
2023-04-29T13:42:27.000Z,98554
2023-04-29T13:43:54.000Z,98550
2023-04-29T13:46:04.000Z,98553
2023-04-29T13:47:34.000Z,98547
2023-04-29T13:51:16.000Z,98552
2023-04-29T13:57:55.000Z,98553
2023-04-29T14:00:07.000Z,98556
2023-04-29T14:02:43.000Z,98556
2023-04-29T14:05:36.000Z,98567
2023-04-29T14:07:02.000Z,98562
2023-04-29T14:09:09.000Z,98564
2023-04-29T14:10:35.000Z,98567
2023-04-29T14:12:41.000Z,98571
2023-04-29T14:14:08.000Z,98569
2023-04-29T14:16:14.000Z,98571
2023-04-29T14:17:40.000Z,98570
2023-04-29T14:19:47.000Z,98567
2023-04-29T14:21:13.000Z,98570
2023-04-29T14:23:19.000Z,98571
2023-04-29T14:24:46.000Z,98567
2023-04-29T14:26:52.000Z,98570
2023-04-29T14:28:18.000Z,98570
2023-04-29T14:30:24.000Z,98573
2023-04-29T14:31:51.000Z,98573
2023-04-29T14:33:57.000Z,98577
2023-04-29T14:35:24.000Z,98579
2023-04-29T14:37:30.000Z,98582
2023-04-29T14:38:57.000Z,98579
2023-04-29T14:41:03.000Z,98584
2023-04-29T14:43:54.000Z,98583
2023-04-29T14:45:21.000Z,98587
2023-04-29T14:47:27.000Z,98589
2023-04-29T14:48:53.000Z,98589
2023-04-29T14:50:59.000Z,98591
2023-04-29T14:52:26.000Z,98594
2023-04-29T14:54:32.000Z,98594
2023-04-29T14:55:59.000Z,98594
2023-04-29T14:58:05.000Z,98600
2023-04-29T14:59:31.000Z,98602
2023-04-29T15:01:37.000Z,98606
2023-04-29T15:03:04.000Z,98606
2023-04-29T15:05:10.000Z,98605
2023-04-29T15:06:37.000Z,98603
2023-04-29T15:08:43.000Z,98609
2023-04-29T15:10:10.000Z,98604
2023-04-29T15:12:16.000Z,98608
2023-04-29T15:13:43.000Z,98611
2023-04-29T15:15:49.000Z,98611
2023-04-29T15:17:15.000Z,98606
2023-04-29T15:19:21.000Z,98606
2023-04-29T15:22:12.000Z,98605
2023-04-29T15:23:39.000Z,98612
2023-04-29T15:25:45.000Z,98609
2023-04-29T15:27:12.000Z,98608
2023-04-29T15:29:18.000Z,98614
2023-04-29T15:30:44.000Z,98613
2023-04-29T15:32:50.000Z,98622
2023-04-29T15:34:17.000Z,98618
2023-04-29T15:36:23.000Z,98620
2023-04-29T15:37:49.000Z,98623
2023-04-29T15:39:56.000Z,98625
2023-04-29T15:41:22.000Z,98633
2023-04-29T15:43:29.000Z,98637
2023-04-29T15:44:55.000Z,98639
2023-04-29T15:47:01.000Z,98641
2023-04-29T15:48:28.000Z,98643
2023-04-29T15:50:34.000Z,98647
2023-04-29T15:52:00.000Z,98645
2023-04-29T15:54:06.000Z,98651
2023-04-29T15:55:33.000Z,98648
2023-04-29T15:57:39.000Z,98654
2023-04-29T16:00:30.000Z,98658
2023-04-29T16:01:57.000Z,98659
2023-04-29T16:04:03.000Z,98657
2023-04-29T16:05:30.000Z,98660
2023-04-29T16:07:36.000Z,98656
2023-04-29T16:09:03.000Z,98658
2023-04-29T16:11:09.000Z,98660
2023-04-29T16:12:35.000Z,98660
2023-04-29T16:14:41.000Z,98663
2023-04-29T16:16:08.000Z,98666
2023-04-29T16:18:14.000Z,98665
2023-04-29T16:19:41.000Z,98670
2023-04-29T16:21:47.000Z,98671
2023-04-29T16:23:13.000Z,98675
2023-04-29T16:25:19.000Z,98676
2023-04-29T16:26:46.000Z,98681
2023-04-29T16:28:52.000Z,98682
2023-04-29T16:30:19.000Z,98683
2023-04-29T16:32:25.000Z,98685
2023-04-29T16:33:51.000Z,98687
2023-04-29T16:35:58.000Z,98687
2023-04-29T16:38:49.000Z,98686
2023-04-29T16:40:15.000Z,98688
2023-04-29T16:42:21.000Z,98688
2023-04-29T16:43:48.000Z,98690
2023-04-29T16:45:54.000Z,98689
2023-04-29T16:47:20.000Z,98689
2023-04-29T16:49:27.000Z,98688
2023-04-29T16:50:53.000Z,98690
2023-04-29T16:52:59.000Z,98692
2023-04-29T16:54:26.000Z,98691
2023-04-29T16:56:32.000Z,98692
2023-04-29T16:57:58.000Z,98691
2023-04-29T17:00:04.000Z,98693
2023-04-29T17:01:31.000Z,98693
2023-04-29T17:03:37.000Z,98689
2023-04-29T17:05:04.000Z,98695
2023-04-29T17:07:10.000Z,98694
2023-04-29T17:08:36.000Z,98696
2023-04-29T17:10:42.000Z,98698
2023-04-29T17:12:09.000Z,98698
2023-04-29T17:14:15.000Z,98699
2023-04-29T17:17:06.000Z,98704
2023-04-29T17:18:33.000Z,98704
2023-04-29T17:20:39.000Z,98706
2023-04-29T17:22:05.000Z,98703
2023-04-29T17:24:12.000Z,98704
2023-04-29T17:25:38.000Z,98708
2023-04-29T17:27:44.000Z,98706
2023-04-29T17:29:11.000Z,98706
2023-04-29T17:31:17.000Z,98708
2023-04-29T17:32:43.000Z,98711
2023-04-29T17:34:49.000Z,98715
2023-04-29T17:36:16.000Z,98715
2023-04-29T17:38:22.000Z,98715
2023-04-29T17:39:49.000Z,98717
2023-04-29T17:41:55.000Z,98718
2023-04-29T17:43:21.000Z,98716
2023-04-29T17:45:27.000Z,98715
2023-04-29T17:46:54.000Z,98718
2023-04-29T17:49:00.000Z,98718
2023-04-29T17:50:26.000Z,98720
2023-04-29T17:52:33.000Z,98728
2023-04-29T17:55:24.000Z,98727
2023-04-29T17:56:50.000Z,98732
2023-04-29T17:58:56.000Z,98731
2023-04-29T18:00:23.000Z,98732
2023-04-29T18:02:29.000Z,98733
2023-04-29T18:03:56.000Z,98736
2023-04-29T18:06:02.000Z,98739
2023-04-29T18:07:28.000Z,98739
2023-04-29T18:09:34.000Z,98739
2023-04-29T18:11:01.000Z,98737
2023-04-29T18:13:07.000Z,98742
2023-04-29T18:14:34.000Z,98740
2023-04-29T18:16:40.000Z,98743
2023-04-29T18:18:06.000Z,98744
2023-04-29T18:20:12.000Z,98745
2023-04-29T18:21:39.000Z,98744
2023-04-29T18:23:45.000Z,98748
2023-04-29T18:25:12.000Z,98752
2023-04-29T18:27:18.000Z,98753
2023-04-29T18:28:44.000Z,98749
2023-04-29T18:30:50.000Z,98747
2023-04-29T18:33:42.000Z,98752
2023-04-29T18:35:08.000Z,98752
2023-04-29T18:37:14.000Z,98754
2023-04-29T18:38:41.000Z,98755
2023-04-29T18:40:47.000Z,98758
2023-04-29T18:42:14.000Z,98757
2023-04-29T18:44:20.000Z,98757
2023-04-29T18:45:46.000Z,98759
2023-04-29T18:47:53.000Z,98764
2023-04-29T18:49:19.000Z,98762
2023-04-29T18:51:25.000Z,98762
2023-04-29T18:52:52.000Z,98764
2023-04-29T18:54:58.000Z,98769
2023-04-29T18:56:25.000Z,98769
2023-04-29T18:58:31.000Z,98774
2023-04-29T18:59:58.000Z,98776
2023-04-29T19:02:04.000Z,98782
2023-04-29T19:03:31.000Z,98780
2023-04-29T19:05:37.000Z,98782
2023-04-29T19:07:03.000Z,98784
2023-04-29T19:09:09.000Z,98789
2023-04-29T19:12:01.000Z,98790
2023-04-29T19:13:27.000Z,98789
2023-04-29T19:15:33.000Z,98793
2023-04-29T19:17:00.000Z,98797
2023-04-29T19:19:06.000Z,98800
2023-04-29T19:20:32.000Z,98796
2023-04-29T19:22:38.000Z,98795
2023-04-29T19:24:05.000Z,98798
2023-04-29T19:26:11.000Z,98795
2023-04-29T19:27:38.000Z,98795
2023-04-29T19:29:44.000Z,98799
2023-04-29T19:31:10.000Z,98799
2023-04-29T19:33:17.000Z,98801
2023-04-29T19:34:43.000Z,98800
2023-04-29T19:36:49.000Z,98800
2023-04-29T19:38:16.000Z,98802
2023-04-29T19:40:22.000Z,98805
2023-04-29T19:41:48.000Z,98806
2023-04-29T19:43:55.000Z,98808
2023-04-29T19:45:21.000Z,98810
2023-04-29T19:47:27.000Z,98808
2023-04-29T19:50:18.000Z,98806
2023-04-29T19:51:45.000Z,98805
2023-04-29T19:53:51.000Z,98804
2023-04-29T19:55:18.000Z,98806
2023-04-29T19:57:24.000Z,98806
2023-04-29T19:58:50.000Z,98809
2023-04-29T20:00:57.000Z,98810
2023-04-29T20:02:23.000Z,98809
2023-04-29T20:04:30.000Z,98811
2023-04-29T20:05:56.000Z,98808
2023-04-29T20:08:02.000Z,98811
2023-04-29T20:09:29.000Z,98812
2023-04-29T20:11:35.000Z,98809
2023-04-29T20:13:01.000Z,98812
2023-04-29T20:15:07.000Z,98810
2023-04-29T20:16:34.000Z,98816
2023-04-29T20:18:40.000Z,98816
2023-04-29T20:20:07.000Z,98820
2023-04-29T20:22:13.000Z,98818
2023-04-29T20:23:39.000Z,98818
2023-04-29T20:25:45.000Z,98816
2023-04-29T20:28:37.000Z,98816
2023-04-29T20:30:03.000Z,98814
2023-04-29T20:32:09.000Z,98814
2023-04-29T20:33:36.000Z,98816
2023-04-29T20:35:42.000Z,98816
2023-04-29T20:37:08.000Z,98815
2023-04-29T20:39:15.000Z,98819
2023-04-29T20:40:41.000Z,98818
2023-04-29T20:42:47.000Z,98820
2023-04-29T20:44:14.000Z,98820
2023-04-29T20:46:20.000Z,98822
2023-04-29T20:47:46.000Z,98823
2023-04-29T20:49:52.000Z,98820
2023-04-29T20:51:20.000Z,98816
2023-04-29T20:53:26.000Z,98822
2023-04-29T20:54:53.000Z,98815
2023-04-29T20:56:59.000Z,98821
2023-04-29T20:58:25.000Z,98820
2023-04-29T21:00:31.000Z,98819
2023-04-29T21:01:58.000Z,98824
2023-04-29T21:04:04.000Z,98824
2023-04-29T21:06:55.000Z,98825
2023-04-29T21:08:22.000Z,98822
2023-04-29T21:10:28.000Z,98829
2023-04-29T21:11:54.000Z,98829
2023-04-29T21:14:00.000Z,98829
2023-04-29T21:15:27.000Z,98833
2023-04-29T21:17:33.000Z,98830
2023-04-29T21:19:00.000Z,98834
2023-04-29T21:21:06.000Z,98832
2023-04-29T21:22:32.000Z,98833
2023-04-29T21:24:38.000Z,98836
2023-04-29T21:26:05.000Z,98837
2023-04-29T21:28:11.000Z,98837
2023-04-29T21:29:37.000Z,98840
2023-04-29T21:31:43.000Z,98841
2023-04-29T21:33:10.000Z,98838
2023-04-29T21:35:16.000Z,98839
2023-04-29T21:36:43.000Z,98839
2023-04-29T21:38:49.000Z,98841
2023-04-29T21:40:15.000Z,98842
2023-04-29T21:42:22.000Z,98842
2023-04-29T21:45:13.000Z,98842
2023-04-29T21:46:39.000Z,98843
2023-04-29T21:48:46.000Z,98845
2023-04-29T21:50:12.000Z,98843
2023-04-29T21:52:18.000Z,98837
2023-04-29T21:53:45.000Z,98838
2023-04-29T21:55:51.000Z,98838
2023-04-29T21:57:17.000Z,98840
2023-04-29T21:59:26.000Z,98840
2023-04-29T22:00:52.000Z,98843
2023-04-29T22:02:59.000Z,98839
2023-04-29T22:04:25.000Z,98841
2023-04-29T22:06:31.000Z,98841
2023-04-29T22:07:58.000Z,98835
2023-04-29T22:10:04.000Z,98833
2023-04-29T22:11:30.000Z,98836
2023-04-29T22:13:36.000Z,98835
2023-04-29T22:15:03.000Z,98835
2023-04-29T22:17:11.000Z,98839
2023-04-29T22:18:37.000Z,98841
2023-04-29T22:20:44.000Z,98842
2023-04-29T22:23:35.000Z,98849
2023-04-29T22:25:01.000Z,98847
2023-04-29T22:27:07.000Z,98851
2023-04-29T22:28:34.000Z,98848
2023-04-29T22:30:40.000Z,98849
2023-04-29T22:32:07.000Z,98854
2023-04-29T22:34:13.000Z,98852
2023-04-29T22:35:39.000Z,98852
2023-04-29T22:37:45.000Z,98854
2023-04-29T22:39:12.000Z,98857
2023-04-29T22:41:18.000Z,98857
2023-04-29T22:42:44.000Z,98862
2023-04-29T22:44:51.000Z,98866
2023-04-29T22:46:17.000Z,98868
2023-04-29T22:48:23.000Z,98873
2023-04-29T22:49:53.000Z,98868
2023-04-29T22:52:00.000Z,98871
2023-04-29T22:53:26.000Z,98874
2023-04-29T22:55:32.000Z,98878
2023-04-29T22:56:59.000Z,98882
2023-04-29T22:59:05.000Z,98887
2023-04-29T23:01:56.000Z,98890
2023-04-29T23:03:23.000Z,98891
2023-04-29T23:05:29.000Z,98890
2023-04-29T23:06:56.000Z,98892
2023-04-29T23:09:02.000Z,98894
2023-04-29T23:10:28.000Z,98898
2023-04-29T23:12:34.000Z,98896
2023-04-29T23:14:01.000Z,98895
2023-04-29T23:16:07.000Z,98899
2023-04-29T23:17:37.000Z,98895
2023-04-29T23:19:43.000Z,98899
2023-04-29T23:21:09.000Z,98901
2023-04-29T23:23:15.000Z,98899
2023-04-29T23:24:42.000Z,98901
2023-04-29T23:26:48.000Z,98900
2023-04-29T23:28:15.000Z,98903
2023-04-29T23:30:21.000Z,98907
2023-04-29T23:31:47.000Z,98904
2023-04-29T23:33:54.000Z,98904
2023-04-29T23:35:20.000Z,98904
2023-04-29T23:37:26.000Z,98905